Rechercher aéroport 
image banner adimage banner adimage banner ad
image banner ad

38CN - Sanborn

Situé à Meridian, United States

ICAO - 38CN, IATA -

Données fournies par Airmate  

Information générale

Coordonnées: N39°6'34" W121°53'2"
Élévation : 36 feet MSL.
Variation magnétique : 16° East
Voir autres Aéroports à California

Données opérationnelles

Special qualification required
Heure actuelle UTC:
Heure actuelle locale:
Météo à : KMYV - Yuba County ( 27 km )
METAR: KMYV 231353Z AUTO 33008KT 10SM CLR 17/08 A2993 RMK AO2 SLP138 T01720078
Voir NOTAMs / SUP AIP / TFR affectant cet aéroport [VIEW]
Fréquences de communication: [VIEW]

Pistes:

Identifiant RWYQFULongueur (ft)Largeur (ft)SurfaceLDA (ft)
16274595OTHER
34274595OTHER

Coordonnées de l'aéroport

Adresse: Meridian United States

Vue satellite de 38CN